Hensall, Canada
Current Conditions -  °F | °C
As of 5:00 PM on Friday 24 Oct 2014 (Local Time) from CYXU Reporting Station
Broken Clouds Broken Clouds  
Wind Chill: 59°   Ceiling: 26000
Heat Index: 59°   Visibility: 15mi
Dew Point: 41°   Wind: 10mph
Humidity: 51%   Direction: 260°W
Pressure: 29.96"   Gusts: NA
Location:  43.43°N, 81.5°W
Report Text: CYXU 242100Z 26009KT 15SM FEW051 SCT085 BKN260 15/05 A2996 RMK SC2AC2CI1 SLP150 DENSITY ALT 1000FT
Loading
Personal Weather Stations






























Interactive Weather Map
Tropical Storm Tracking
New forecast layout! Learn more

10-Day Weather Forecast

Advertisements
Track Severe Weather on mobile